sensor_id;sensor_type;location;lat;lon;timestamp;pressure;altitude;pressure_sealevel;temperature;humidity
22688;BME280;11511;51.514;7.080;2024-01-30T00:00:50;102178.97;;;7.86;100.00
22688;BME280;11511;51.514;7.080;2024-01-30T00:03:15;102188.56;;;7.62;100.00
22688;BME280;11511;51.514;7.080;2024-01-30T00:05:41;102188.56;;;7.71;100.00
22688;BME280;11511;51.514;7.080;2024-01-30T00:08:06;102192.94;;;7.59;100.00
22688;BME280;11511;51.514;7.080;2024-01-30T00:10:31;102188.56;;;7.58;100.00
22688;BME280;11511;51.514;7.080;2024-01-30T00:12:56;102189.44;;;7.78;100.00
22688;BME280;11511;51.514;7.080;2024-01-30T00:15:22;102187.69;;;7.62;100.00
22688;BME280;11511;51.514;7.080;2024-01-30T00:17:47;102184.22;;;7.63;100.00
22688;BME280;11511;51.514;7.080;2024-01-30T00:20:13;102188.56;;;7.56;100.00
22688;BME280;11511;51.514;7.080;2024-01-30T00:22:38;102183.31;;;7.59;100.00
22688;BME280;11511;51.514;7.080;2024-01-30T00:25:03;102178.94;;;7.95;100.00
22688;BME280;11511;51.514;7.080;2024-01-30T00:27:29;102175.47;;;7.79;100.00
22688;BME280;11511;51.514;7.080;2024-01-30T00:29:54;102178.06;;;7.55;100.00
22688;BME280;11511;51.514;7.080;2024-01-30T00:32:20;102169.31;;;7.69;100.00
22688;BME280;11511;51.514;7.080;2024-01-30T00:34:45;102165.84;;;7.54;100.00
22688;BME280;11511;51.514;7.080;2024-01-30T00:37:10;102169.31;;;7.68;100.00
22688;BME280;11511;51.514;7.080;2024-01-30T00:39:36;102169.34;;;7.74;100.00
22688;BME280;11511;51.514;7.080;2024-01-30T00:42:01;102159.72;;;7.68;100.00
22688;BME280;11511;51.514;7.080;2024-01-30T00:44:26;102164.94;;;7.48;100.00
22688;BME280;11511;51.514;7.080;2024-01-30T00:46:51;102170.19;;;7.41;100.00
22688;BME280;11511;51.514;7.080;2024-01-30T00:49:17;102164.06;;;7.40;100.00
22688;BME280;11511;51.514;7.080;2024-01-30T00:51:42;102163.19;;;7.44;100.00
22688;BME280;11511;51.514;7.080;2024-01-30T00:54:07;102159.72;;;7.52;100.00
22688;BME280;11511;51.514;7.080;2024-01-30T00:56:33;102160.59;;;7.57;100.00
22688;BME280;11511;51.514;7.080;2024-01-30T00:58:58;102169.31;;;7.33;100.00
22688;BME280;11511;51.514;7.080;2024-01-30T01:01:23;102165.81;;;7.46;100.00
22688;BME280;11511;51.514;7.080;2024-01-30T01:03:48;102160.59;;;7.37;100.00
22688;BME280;11511;51.514;7.080;2024-01-30T01:06:14;102168.44;;;7.34;100.00
22688;BME280;11511;51.514;7.080;2024-01-30T01:08:39;102164.06;;;7.28;100.00
22688;BME280;11511;51.514;7.080;2024-01-30T01:11:04;102164.03;;;7.22;100.00
22688;BME280;11511;51.514;7.080;2024-01-30T01:13:29;102163.16;;;7.09;100.00
22688;BME280;11511;51.514;7.080;2024-01-30T01:15:55;102161.41;;;7.07;100.00
22688;BME280;11511;51.514;7.080;2024-01-30T01:18:20;102167.47;;;6.97;100.00
22688;BME280;11511;51.514;7.080;2024-01-30T01:20:45;102177.91;;;6.91;100.00
22688;BME280;11511;51.514;7.080;2024-01-30T01:23:11;102170.91;;;6.79;100.00
22688;BME280;11511;51.514;7.080;2024-01-30T01:25:36;102168.28;;;6.77;100.00
22688;BME280;11511;51.514;7.080;2024-01-30T01:28:01;102173.56;;;6.93;100.00
22688;BME280;11511;51.514;7.080;2024-01-30T01:30:26;102171.00;;;7.02;100.00
22688;BME280;11511;51.514;7.080;2024-01-30T01:32:53;102170.13;;;7.17;100.00
22688;BME280;11511;51.514;7.080;2024-01-30T01:35:23;102173.59;;;7.02;100.00
22688;BME280;11511;51.514;7.080;2024-01-30T01:37:50;102164.91;;;7.20;100.00
22688;BME280;11511;51.514;7.080;2024-01-30T01:40:20;102160.53;;;7.17;100.00
22688;BME280;11511;51.514;7.080;2024-01-30T01:42:45;102165.78;;;7.17;100.00
22688;BME280;11511;51.514;7.080;2024-01-30T01:45:10;102161.41;;;7.22;100.00
22688;BME280;11511;51.514;7.080;2024-01-30T01:47:36;102159.66;;;7.20;100.00
22688;BME280;11511;51.514;7.080;2024-01-30T01:50:01;102164.88;;;7.13;100.00
22688;BME280;11511;51.514;7.080;2024-01-30T01:52:27;102160.53;;;7.16;100.00
22688;BME280;11511;51.514;7.080;2024-01-30T01:54:52;102159.66;;;7.13;100.00
22688;BME280;11511;51.514;7.080;2024-01-30T01:57:17;102148.34;;;7.33;100.00
22688;BME280;11511;51.514;7.080;2024-01-30T01:59:43;102143.09;;;7.31;100.00
22688;BME280;11511;51.514;7.080;2024-01-30T02:02:08;102144.84;;;7.43;100.00
22688;BME280;11511;51.514;7.080;2024-01-30T02:04:36;102145.69;;;7.18;100.00
22688;BME280;11511;51.514;7.080;2024-01-30T02:07:01;102148.31;;;7.19;100.00
22688;BME280;11511;51.514;7.080;2024-01-30T02:09:26;102142.19;;;7.06;100.00
22688;BME280;11511;51.514;7.080;2024-01-30T02:11:51;102143.91;;;6.98;100.00
22688;BME280;11511;51.514;7.080;2024-01-30T02:14:17;102143.88;;;6.83;100.00
22688;BME280;11511;51.514;7.080;2024-01-30T02:16:42;102148.16;;;6.69;100.00
22688;BME280;11511;51.514;7.080;2024-01-30T02:19:07;102146.41;;;6.68;100.00
22688;BME280;11511;51.514;7.080;2024-01-30T02:21:33;102143.75;;;6.53;100.00
22688;BME280;11511;51.514;7.080;2024-01-30T02:23:58;102146.28;;;6.40;100.00
22688;BME280;11511;51.514;7.080;2024-01-30T02:26:25;102141.88;;;6.33;100.00
22688;BME280;11511;51.514;7.080;2024-01-30T02:28:50;102133.13;;;6.22;100.00
22688;BME280;11511;51.514;7.080;2024-01-30T02:31:16;102139.19;;;6.18;100.00
22688;BME280;11511;51.514;7.080;2024-01-30T02:33:41;102133.94;;;6.15;100.00
22688;BME280;11511;51.514;7.080;2024-01-30T02:36:06;102133.88;;;6.01;100.00
22688;BME280;11511;51.514;7.080;2024-01-30T02:38:32;102134.69;;;5.93;100.00
22688;BME280;11511;51.514;7.080;2024-01-30T02:40:57;102129.31;;;5.81;100.00
22688;BME280;11511;51.514;7.080;2024-01-30T02:43:22;102131.25;;;6.00;100.00
22688;BME280;11511;51.514;7.080;2024-01-30T02:45:48;102127.53;;;5.76;100.00
22688;BME280;11511;51.514;7.080;2024-01-30T02:48:13;102124.22;;;5.94;100.00
22688;BME280;11511;51.514;7.080;2024-01-30T02:50:38;102118.03;;;5.85;100.00
22688;BME280;11511;51.514;7.080;2024-01-30T02:53:07;102122.31;;;5.75;100.00
22688;BME280;11511;51.514;7.080;2024-01-30T02:55:34;102117.09;;;5.78;100.00
22688;BME280;11511;51.514;7.080;2024-01-30T02:58:00;102111.88;;;5.78;100.00
22688;BME280;11511;51.514;7.080;2024-01-30T03:00:25;102111.81;;;5.69;100.00
22688;BME280;11511;51.514;7.080;2024-01-30T03:02:50;102106.66;;;5.81;100.00
22688;BME280;11511;51.514;7.080;2024-01-30T03:05:16;102116.19;;;5.71;100.00
22688;BME280;11511;51.514;7.080;2024-01-30T03:07:43;102096.22;;;5.83;100.00
22688;BME280;11511;51.514;7.080;2024-01-30T03:10:08;102095.31;;;5.79;100.00
22688;BME280;11511;51.514;7.080;2024-01-30T03:12:35;102104.84;;;5.68;100.00
22688;BME280;11511;51.514;7.080;2024-01-30T03:15:00;102102.19;;;5.65;100.00
22688;BME280;11511;51.514;7.080;2024-01-30T03:17:27;102101.47;;;5.86;100.00
22688;BME280;11511;51.514;7.080;2024-01-30T03:19:53;102098.81;;;5.79;100.00
22688;BME280;11511;51.514;7.080;2024-01-30T03:22:19;102104.00;;;5.72;100.00
22688;BME280;11511;51.514;7.080;2024-01-30T03:24:45;102102.19;;;5.65;100.00
22688;BME280;11511;51.514;7.080;2024-01-30T03:27:10;102099.72;;;5.85;100.00
22688;BME280;11511;51.514;7.080;2024-01-30T03:29:36;102092.81;;;5.91;100.00
22688;BME280;11511;51.514;7.080;2024-01-30T03:32:02;102098.03;;;5.90;100.00
22688;BME280;11511;51.514;7.080;2024-01-30T03:34:29;102098.97;;;5.98;100.00
22688;BME280;11511;51.514;7.080;2024-01-30T03:36:55;102091.00;;;5.84;100.00
22688;BME280;11511;51.514;7.080;2024-01-30T03:39:20;102103.16;;;5.79;100.00
22688;BME280;11511;51.514;7.080;2024-01-30T03:41:45;102100.47;;;5.67;100.00
22688;BME280;11511;51.514;7.080;2024-01-30T03:44:11;102100.50;;;5.68;100.00
22688;BME280;11511;51.514;7.080;2024-01-30T03:46:37;102097.97;;;5.85;100.00
22688;BME280;11511;51.514;7.080;2024-01-30T03:49:02;102090.28;;;6.05;100.00
22688;BME280;11511;51.514;7.080;2024-01-30T03:51:29;102085.88;;;5.96;100.00
22688;BME280;11511;51.514;7.080;2024-01-30T03:53:55;102092.88;;;5.99;100.00
22688;BME280;11511;51.514;7.080;2024-01-30T03:56:21;102087.44;;;5.70;100.00
22688;BME280;11511;51.514;7.080;2024-01-30T03:58:46;102084.84;;;5.77;100.00
22688;BME280;11511;51.514;7.080;2024-01-30T04:01:16;102076.00;;;5.57;100.00
22688;BME280;11511;51.514;7.080;2024-01-30T04:03:42;102083.75;;;5.45;100.00
22688;BME280;11511;51.514;7.080;2024-01-30T04:06:09;102076.75;;;5.41;100.00
22688;BME280;11511;51.514;7.080;2024-01-30T04:08:34;102081.16;;;5.50;100.00
22688;BME280;11511;51.514;7.080;2024-01-30T04:11:07;102075.03;;;5.41;100.00
22688;BME280;11511;51.514;7.080;2024-01-30T04:13:34;102071.38;;;5.26;100.00
22688;BME280;11511;51.514;7.080;2024-01-30T04:16:01;102083.41;;;5.05;100.00
22688;BME280;11511;51.514;7.080;2024-01-30T04:18:27;102067.13;;;5.35;100.00
22688;BME280;11511;51.514;7.080;2024-01-30T04:20:54;102068.28;;;5.74;100.00
22688;BME280;11511;51.514;7.080;2024-01-30T04:23:19;102066.44;;;5.59;100.00
22688;BME280;11511;51.514;7.080;2024-01-30T04:25:45;102065.59;;;5.62;100.00
22688;BME280;11511;51.514;7.080;2024-01-30T04:28:11;102060.91;;;5.23;100.00
22688;BME280;11511;51.514;7.080;2024-01-30T04:30:39;102054.69;;;5.05;100.00
22688;BME280;11511;51.514;7.080;2024-01-30T04:33:05;102058.38;;;5.30;100.00
22688;BME280;11511;51.514;7.080;2024-01-30T04:35:30;102053.91;;;5.14;100.00
22688;BME280;11511;51.514;7.080;2024-01-30T04:37:57;102060.19;;;5.37;100.00
22688;BME280;11511;51.514;7.080;2024-01-30T04:40:23;102061.06;;;5.39;100.00
22688;BME280;11511;51.514;7.080;2024-01-30T04:42:48;102061.03;;;5.35;100.00
22688;BME280;11511;51.514;7.080;2024-01-30T04:45:14;102059.25;;;5.31;100.00
22688;BME280;11511;51.514;7.080;2024-01-30T04:47:39;102066.72;;;4.93;100.00
22688;BME280;11511;51.514;7.080;2024-01-30T04:50:07;102069.13;;;4.71;100.00
22688;BME280;11511;51.514;7.080;2024-01-30T04:52:33;102073.66;;;4.88;100.00
22688;BME280;11511;51.514;7.080;2024-01-30T04:54:59;102065.66;;;4.72;100.00
22688;BME280;11511;51.514;7.080;2024-01-30T04:57:24;102060.66;;;4.92;100.00
22688;BME280;11511;51.514;7.080;2024-01-30T04:59:50;102066.53;;;4.73;100.00
22688;BME280;11511;51.514;7.080;2024-01-30T05:02:15;102067.94;;;5.28;100.00
22688;BME280;11511;51.514;7.080;2024-01-30T05:04:42;102060.22;;;5.42;100.00
22688;BME280;11511;51.514;7.080;2024-01-30T05:07:08;102060.66;;;4.92;100.00
22688;BME280;11511;51.514;7.080;2024-01-30T05:09:34;102064.28;;;5.08;100.00
22688;BME280;11511;51.514;7.080;2024-01-30T05:11:59;102059.47;;;5.60;100.00
22688;BME280;11511;51.514;7.080;2024-01-30T05:14:25;102061.78;;;5.22;100.00
22688;BME280;11511;51.514;7.080;2024-01-30T05:16:50;102056.88;;;5.63;100.00
22688;BME280;11511;51.514;7.080;2024-01-30T05:19:17;102065.66;;;5.71;100.00
22688;BME280;11511;51.514;7.080;2024-01-30T05:21:43;102062.84;;;5.43;100.00
22688;BME280;11511;51.514;7.080;2024-01-30T05:24:08;102060.25;;;5.47;100.00
22688;BME280;11511;51.514;7.080;2024-01-30T05:26:35;102059.75;;;5.99;100.00
22688;BME280;11511;51.514;7.080;2024-01-30T05:29:00;102055.34;;;5.92;100.00
22688;BME280;11511;51.514;7.080;2024-01-30T05:31:26;102055.41;;;6.01;100.00
22688;BME280;11511;51.514;7.080;2024-01-30T05:33:52;102059.75;;;5.99;100.00
22688;BME280;11511;51.514;7.080;2024-01-30T05:36:17;102057.16;;;6.08;100.00
22688;BME280;11511;51.514;7.080;2024-01-30T05:38:43;102053.00;;;6.49;100.00
22688;BME280;11511;51.514;7.080;2024-01-30T05:41:08;102044.28;;;6.62;100.00
22688;BME280;11511;51.514;7.080;2024-01-30T05:43:34;102039.91;;;6.58;100.00
22688;BME280;11511;51.514;7.080;2024-01-30T05:46:00;102046.00;;;6.58;100.00
22688;BME280;11511;51.514;7.080;2024-01-30T05:48:25;102041.56;;;6.27;100.00
22688;BME280;11511;51.514;7.080;2024-01-30T05:50:52;102046.75;;;6.19;100.00
22688;BME280;11511;51.514;7.080;2024-01-30T05:53:18;102045.13;;;6.47;100.00
22688;BME280;11511;51.514;7.080;2024-01-30T05:55:47;102034.69;;;6.52;100.00
22688;BME280;11511;51.514;7.080;2024-01-30T05:58:12;102048.63;;;6.51;100.00
22688;BME280;11511;51.514;7.080;2024-01-30T06:00:38;102044.31;;;6.74;100.00
22688;BME280;11511;51.514;7.080;2024-01-30T06:03:04;102048.59;;;6.40;100.00
22688;BME280;11511;51.514;7.080;2024-01-30T06:05:30;102044.25;;;6.47;100.00
22688;BME280;11511;51.514;7.080;2024-01-30T06:08:01;102048.63;;;6.46;100.00
22688;BME280;11511;51.514;7.080;2024-01-30T06:10:28;102037.28;;;6.47;100.00
22688;BME280;11511;51.514;7.080;2024-01-30T06:12:53;102043.25;;;6.14;100.00
22688;BME280;11511;51.514;7.080;2024-01-30T06:15:19;102041.56;;;6.22;100.00
22688;BME280;11511;51.514;7.080;2024-01-30T06:17:46;102038.09;;;6.38;100.00
22688;BME280;11511;51.514;7.080;2024-01-30T06:20:11;102043.38;;;6.44;100.00
22688;BME280;11511;51.514;7.080;2024-01-30T06:22:37;102050.28;;;6.23;100.00
22688;BME280;11511;51.514;7.080;2024-01-30T06:25:03;102050.19;;;6.09;100.00
22688;BME280;11511;51.514;7.080;2024-01-30T06:27:31;102055.38;;;6.03;100.00
22688;BME280;11511;51.514;7.080;2024-01-30T06:29:57;102052.06;;;6.36;100.00
22688;BME280;11511;51.514;7.080;2024-01-30T06:32:23;102042.44;;;6.27;100.00
22688;BME280;11511;51.514;7.080;2024-01-30T06:34:49;102042.31;;;6.03;100.00
22688;BME280;11511;51.514;7.080;2024-01-30T06:37:15;102053.63;;;5.96;100.00
22688;BME280;11511;51.514;7.080;2024-01-30T06:39:40;102050.16;;;5.98;100.00
22688;BME280;11511;51.514;7.080;2024-01-30T06:42:06;102055.53;;;6.33;100.00
22688;BME280;11511;51.514;7.080;2024-01-30T06:44:32;102041.53;;;6.18;100.00
22688;BME280;11511;51.514;7.080;2024-01-30T06:46:58;102038.91;;;6.18;100.00
22688;BME280;11511;51.514;7.080;2024-01-30T06:49:24;102035.53;;;6.44;100.00
22688;BME280;11511;51.514;7.080;2024-01-30T06:51:50;102033.81;;;6.60;100.00
22688;BME280;11511;51.514;7.080;2024-01-30T06:54:15;102027.75;;;6.86;100.00
22688;BME280;11511;51.514;7.080;2024-01-30T06:56:41;102025.13;;;6.87;100.00
22688;BME280;11511;51.514;7.080;2024-01-30T06:59:06;102026.03;;;6.98;100.00
22688;BME280;11511;51.514;7.080;2024-01-30T07:01:33;102028.63;;;6.95;100.00
22688;BME280;11511;51.514;7.080;2024-01-30T07:03:59;102041.75;;;7.09;100.00
22688;BME280;11511;51.514;7.080;2024-01-30T07:06:27;102033.88;;;6.92;100.00
22688;BME280;11511;51.514;7.080;2024-01-30T07:08:52;102039.13;;;7.17;100.00
22688;BME280;11511;51.514;7.080;2024-01-30T07:11:19;102047.00;;;7.07;100.00
22688;BME280;11511;51.514;7.080;2024-01-30T07:13:45;102047.00;;;7.06;100.00
22688;BME280;11511;51.514;7.080;2024-01-30T07:16:10;102055.69;;;6.74;100.00
22688;BME280;11511;51.514;7.080;2024-01-30T07:18:36;102058.31;;;6.96;100.00
22688;BME280;11511;51.514;7.080;2024-01-30T07:21:01;102067.88;;;6.71;100.00
22688;BME280;11511;51.514;7.080;2024-01-30T07:23:27;102061.84;;;7.21;100.00
22688;BME280;11511;51.514;7.080;2024-01-30T07:25:54;102061.84;;;7.19;100.00
22688;BME280;11511;51.514;7.080;2024-01-30T07:28:20;102067.09;;;7.30;100.00
22688;BME280;11511;51.514;7.080;2024-01-30T07:30:45;102066.22;;;7.32;100.00
22688;BME280;11511;51.514;7.080;2024-01-30T07:33:11;102056.59;;;7.28;100.00
22688;BME280;11511;51.514;7.080;2024-01-30T07:35:37;102060.97;;;7.23;100.00
22688;BME280;11511;51.514;7.080;2024-01-30T07:38:02;102055.72;;;7.64;100.00
22688;BME280;11511;51.514;7.080;2024-01-30T07:40:28;102063.59;;;7.47;100.00
22688;BME280;11511;51.514;7.080;2024-01-30T07:42:54;102064.47;;;7.59;100.00
22688;BME280;11511;51.514;7.080;2024-01-30T07:45:20;102054.84;;;7.41;100.00
22688;BME280;11511;51.514;7.080;2024-01-30T07:47:51;102051.34;;;7.54;100.00
22688;BME280;11511;51.514;7.080;2024-01-30T07:50:16;102057.47;;;7.58;100.00
22688;BME280;11511;51.514;7.080;2024-01-30T07:52:42;102061.84;;;7.60;100.00
22688;BME280;11511;51.514;7.080;2024-01-30T07:55:08;102069.69;;;7.59;100.00
22688;BME280;11511;51.514;7.080;2024-01-30T07:57:34;102073.16;;;7.74;100.00
22688;BME280;11511;51.514;7.080;2024-01-30T08:00:00;102080.16;;;7.80;100.00
22688;BME280;11511;51.514;7.080;2024-01-30T08:02:26;102078.34;;;7.97;100.00
22688;BME280;11511;51.514;7.080;2024-01-30T08:04:52;102086.22;;;8.06;100.00
22688;BME280;11511;51.514;7.080;2024-01-30T08:07:18;102088.84;;;8.12;100.00
22688;BME280;11511;51.514;7.080;2024-01-30T08:09:45;102088.78;;;8.23;100.00
22688;BME280;11511;51.514;7.080;2024-01-30T08:12:10;102088.81;;;8.20;100.00
22688;BME280;11511;51.514;7.080;2024-01-30T08:14:37;102090.53;;;8.23;100.00
22688;BME280;11511;51.514;7.080;2024-01-30T08:17:03;102088.81;;;8.20;100.00
22688;BME280;11511;51.514;7.080;2024-01-30T08:19:29;102090.50;;;8.30;100.00
22688;BME280;11511;51.514;7.080;2024-01-30T08:21:55;102087.91;;;8.36;100.00
22688;BME280;11511;51.514;7.080;2024-01-30T08:24:20;102081.69;;;8.53;100.00
22688;BME280;11511;51.514;7.080;2024-01-30T08:26:46;102087.88;;;8.42;100.00
22688;BME280;11511;51.514;7.080;2024-01-30T08:29:12;102090.50;;;8.44;100.00
22688;BME280;11511;51.514;7.080;2024-01-30T08:31:38;102094.84;;;8.48;100.00
22688;BME280;11511;51.514;7.080;2024-01-30T08:34:03;102096.63;;;8.43;100.00
22688;BME280;11511;51.514;7.080;2024-01-30T08:36:29;102091.31;;;8.57;100.00
22688;BME280;11511;51.514;7.080;2024-01-30T08:38:54;102087.75;;;8.68;100.00
22688;BME280;11511;51.514;7.080;2024-01-30T08:41:20;102088.63;;;8.72;100.00
22688;BME280;11511;51.514;7.080;2024-01-30T08:43:45;102099.03;;;8.89;100.00
22688;BME280;11511;51.514;7.080;2024-01-30T08:46:11;102090.25;;;8.90;100.00
22688;BME280;11511;51.514;7.080;2024-01-30T08:48:37;102099.84;;;8.97;100.00
22688;BME280;11511;51.514;7.080;2024-01-30T08:51:03;102096.94;;;9.33;100.00
22688;BME280;11511;51.514;7.080;2024-01-30T08:53:28;102093.34;;;9.48;100.00
22688;BME280;11511;51.514;7.080;2024-01-30T08:55:54;102101.22;;;9.51;100.00
22688;BME280;11511;51.514;7.080;2024-01-30T08:58:19;102101.94;;;9.65;100.00
22688;BME280;11511;51.514;7.080;2024-01-30T09:00:45;102104.63;;;9.61;100.00
22688;BME280;11511;51.514;7.080;2024-01-30T09:03:11;102096.66;;;9.68;100.00
22688;BME280;11511;51.514;7.080;2024-01-30T09:05:36;102100.41;;;9.41;100.00
22688;BME280;11511;51.514;7.080;2024-01-30T09:08:03;102100.38;;;9.47;100.00
22688;BME280;11511;51.514;7.080;2024-01-30T09:10:28;102114.22;;;9.66;100.00
22688;BME280;11511;51.514;7.080;2024-01-30T09:12:58;102108.97;;;9.66;100.00
22688;BME280;11511;51.514;7.080;2024-01-30T09:15:23;102110.75;;;9.63;100.00
22688;BME280;11511;51.514;7.080;2024-01-30T09:17:49;102115.06;;;9.71;100.00
22688;BME280;11511;51.514;7.080;2024-01-30T09:20:14;102124.59;;;9.84;100.00
22688;BME280;11511;51.514;7.080;2024-01-30T09:22:40;102126.28;;;9.89;100.00
22688;BME280;11511;51.514;7.080;2024-01-30T09:25:05;102133.31;;;9.88;100.00
22688;BME280;11511;51.514;7.080;2024-01-30T09:27:31;102134.22;;;9.85;100.00
22688;BME280;11511;51.514;7.080;2024-01-30T09:29:57;102146.38;;;9.97;100.00
22688;BME280;11511;51.514;7.080;2024-01-30T09:32:22;102132.25;;;10.09;100.00
22688;BME280;11511;51.514;7.080;2024-01-30T09:34:48;102137.41;;;10.20;100.00
22688;BME280;11511;51.514;7.080;2024-01-30T09:37:14;102139.09;;;10.28;100.00
22688;BME280;11511;51.514;7.080;2024-01-30T09:39:41;102133.66;;;10.42;100.00
22688;BME280;11511;51.514;7.080;2024-01-30T09:42:18;102130.84;;;10.57;100.00
22688;BME280;11511;51.514;7.080;2024-01-30T09:44:46;102128.00;;;10.72;100.00
22688;BME280;11511;51.514;7.080;2024-01-30T09:47:12;102121.78;;;10.79;100.00
22688;BME280;11511;51.514;7.080;2024-01-30T09:49:38;102129.41;;;10.99;100.00
22688;BME280;11511;51.514;7.080;2024-01-30T09:52:05;102114.00;;;11.29;100.00
22688;BME280;11511;51.514;7.080;2024-01-30T09:54:30;102117.09;;;11.57;100.00
22688;BME280;11511;51.514;7.080;2024-01-30T09:56:57;102114.03;;;11.82;100.00
22688;BME280;11511;51.514;7.080;2024-01-30T09:59:22;102111.63;;;12.16;100.00
22688;BME280;11511;51.514;7.080;2024-01-30T10:01:49;102118.78;;;12.11;100.00
22688;BME280;11511;51.514;7.080;2024-01-30T10:04:15;102120.97;;;11.88;100.00
22688;BME280;11511;51.514;7.080;2024-01-30T10:06:41;102125.53;;;11.78;100.00
22688;BME280;11511;51.514;7.080;2024-01-30T10:09:07;102137.41;;;12.04;100.00
22688;BME280;11511;51.514;7.080;2024-01-30T10:11:35;102123.81;;;12.25;100.00
22688;BME280;11511;51.514;7.080;2024-01-30T10:14:01;102116.50;;;12.38;100.00
22688;BME280;11511;51.514;7.080;2024-01-30T10:16:27;102124.03;;;12.58;100.00
22688;BME280;11511;51.514;7.080;2024-01-30T10:18:52;102123.09;;;12.15;100.00
22688;BME280;11511;51.514;7.080;2024-01-30T10:21:18;102119.03;;;11.99;100.00
22688;BME280;11511;51.514;7.080;2024-01-30T10:23:44;102120.97;;;12.77;100.00
22688;BME280;11511;51.514;7.080;2024-01-30T10:26:10;102115.44;;;13.96;100.00
22688;BME280;11511;51.514;7.080;2024-01-30T10:28:36;102120.94;;;14.53;100.00
22688;BME280;11511;51.514;7.080;2024-01-30T10:31:01;102121.84;;;14.21;100.00
22688;BME280;11511;51.514;7.080;2024-01-30T10:33:32;102126.97;;;13.61;100.00
22688;BME280;11511;51.514;7.080;2024-01-30T10:36:00;102130.06;;;12.63;100.00
22688;BME280;11511;51.514;7.080;2024-01-30T10:38:28;102129.06;;;12.27;100.00
22688;BME280;11511;51.514;7.080;2024-01-30T10:40:58;102125.50;;;12.29;100.00
22688;BME280;11511;51.514;7.080;2024-01-30T10:43:47;102126.56;;;12.19;100.00
22688;BME280;11511;51.514;7.080;2024-01-30T10:46:11;102125.28;;;12.38;100.00
22688;BME280;11511;51.514;7.080;2024-01-30T10:48:42;102123.38;;;12.46;100.00
22688;BME280;11511;51.514;7.080;2024-01-30T10:51:10;102129.25;;;12.59;100.00
22688;BME280;11511;51.514;7.080;2024-01-30T10:53:38;102131.81;;;12.64;100.00
22688;BME280;11511;51.514;7.080;2024-01-30T10:56:04;102135.53;;;12.55;100.00
22688;BME280;11511;51.514;7.080;2024-01-30T10:58:30;102138.78;;;12.68;100.00
22688;BME280;11511;51.514;7.080;2024-01-30T11:00:55;102148.50;;;12.24;100.00
22688;BME280;11511;51.514;7.080;2024-01-30T11:03:21;102133.66;;;12.15;100.00
22688;BME280;11511;51.514;7.080;2024-01-30T11:05:52;102139.09;;;12.08;100.00
22688;BME280;11511;51.514;7.080;2024-01-30T11:08:24;102128.88;;;12.36;100.00
22688;BME280;11511;51.514;7.080;2024-01-30T11:10:54;102125.56;;;12.26;100.00
22688;BME280;11511;51.514;7.080;2024-01-30T11:13:21;102133.97;;;12.45;100.00
22688;BME280;11511;51.514;7.080;2024-01-30T11:15:50;102135.38;;;12.63;100.00
22688;BME280;11511;51.514;7.080;2024-01-30T11:18:25;102127.94;;;12.38;100.00
22688;BME280;11511;51.514;7.080;2024-01-30T11:20:50;102138.69;;;12.31;100.00
22688;BME280;11511;51.514;7.080;2024-01-30T11:23:16;102137.69;;;12.35;100.00
22688;BME280;11511;51.514;7.080;2024-01-30T11:25:43;102133.69;;;12.59;100.00
22688;BME280;11511;51.514;7.080;2024-01-30T11:28:12;102138.16;;;12.57;100.00
22688;BME280;11511;51.514;7.080;2024-01-30T11:30:38;102133.31;;;12.34;100.00
22688;BME280;11511;51.514;7.080;2024-01-30T11:33:05;102144.19;;;12.18;100.00
22688;BME280;11511;51.514;7.080;2024-01-30T11:35:34;102143.31;;;12.18;100.00
22688;BME280;11511;51.514;7.080;2024-01-30T11:38:01;102140.91;;;12.04;100.00
22688;BME280;11511;51.514;7.080;2024-01-30T11:40:30;102149.94;;;11.93;100.00
22688;BME280;11511;51.514;7.080;2024-01-30T11:42:58;102141.31;;;11.83;100.00
22688;BME280;11511;51.514;7.080;2024-01-30T11:45:23;102149.00;;;11.97;100.00
22688;BME280;11511;51.514;7.080;2024-01-30T11:47:49;102154.31;;;11.94;100.00
22688;BME280;11511;51.514;7.080;2024-01-30T11:50:14;102152.59;;;11.93;100.00
22688;BME280;11511;51.514;7.080;2024-01-30T11:52:41;102157.16;;;11.81;100.00
22688;BME280;11511;51.514;7.080;2024-01-30T11:55:08;102162.16;;;11.98;100.00
22688;BME280;11511;51.514;7.080;2024-01-30T11:57:34;102152.44;;;12.02;100.00
22688;BME280;11511;51.514;7.080;2024-01-30T12:00:03;102146.31;;;11.98;100.00
22688;BME280;11511;51.514;7.080;2024-01-30T12:02:38;102154.44;;;11.88;100.00
22688;BME280;11511;51.514;7.080;2024-01-30T12:05:07;102154.66;;;11.74;100.00
22688;BME280;11511;51.514;7.080;2024-01-30T12:07:33;102155.69;;;11.64;100.00
22688;BME280;11511;51.514;7.080;2024-01-30T12:09:59;102146.06;;;11.60;100.00
22688;BME280;11511;51.514;7.080;2024-01-30T12:12:25;102143.44;;;11.58;100.00
22688;BME280;11511;51.514;7.080;2024-01-30T12:14:50;102152.88;;;11.74;100.00
22688;BME280;11511;51.514;7.080;2024-01-30T12:17:29;102141.34;;;11.80;100.00
22688;BME280;11511;51.514;7.080;2024-01-30T12:22:36;102138.16;;;11.58;100.00
22688;BME280;11511;51.514;7.080;2024-01-30T12:25:04;102138.16;;;11.58;100.00
22688;BME280;11511;51.514;7.080;2024-01-30T12:27:29;102147.56;;;11.76;100.00
22688;BME280;11511;51.514;7.080;2024-01-30T12:29:57;102147.72;;;11.67;100.00
22688;BME280;11511;51.514;7.080;2024-01-30T12:32:23;102139.66;;;11.76;100.00
22688;BME280;11511;51.514;7.080;2024-01-30T12:34:48;102151.31;;;11.61;100.00
22688;BME280;11511;51.514;7.080;2024-01-30T12:37:14;102155.63;;;11.67;100.00
22688;BME280;11511;51.514;7.080;2024-01-30T12:39:45;102148.41;;;11.79;100.00
22688;BME280;11511;51.514;7.080;2024-01-30T12:42:10;102150.47;;;11.59;100.00
22688;BME280;11511;51.514;7.080;2024-01-30T12:44:36;102144.28;;;11.60;100.00